Time;durP1;ratioP1;P1;durP2;ratioP2;P2;SDS_P1;SDS_P2;PMS_P1;PMS_P2;Temp;Humidity;BMP_temperature;BMP_pressure;BME280_temperature;BME280_humidity;BME280_pressure;Samples;Min_cycle;Max_cycle;Signal;HPM_P1;HPM_P2
2024/01/31 00:00:10;;;;;;;;;2740.00;2740.00;;;;;18.92;47.30;101974.30;34140;1265;19442;-71
2024/01/31 00:01:11;;;;;;;;;1385.00;1384.00;;;;;18.93;47.54;101977.67;34145;1265;20463;-71
2024/01/31 00:02:06;;;;;;;;;2285.00;2284.00;;;;;18.93;47.52;101974.16;34146;1264;20409;-71
2024/01/31 00:02:54;;;;;;;;;2599.67;2599.33;;;;;18.93;47.62;101971.11;34132;1264;20658;-70
2024/01/31 00:03:41;;;;;;;;;;;;;;;18.93;47.54;101971.23;34137;1265;22600;-71
2024/01/31 00:04:29;;;;;;;;;2518.00;2518.00;;;;;18.93;47.69;101971.23;34150;1265;18837;-71
2024/01/31 00:05:16;;;;;;;;;2516.00;2516.00;;;;;18.93;47.61;101969.42;34152;1256;20554;-71
2024/01/31 00:06:03;;;;;;;;;2272.00;2272.00;;;;;18.94;47.72;101965.75;34148;1256;20395;-71
2024/01/31 00:06:51;;;;;;;;;2733.00;2733.00;;;;;18.93;47.81;101964.55;34157;1264;19077;-71
2024/01/31 00:07:38;;;;;;;;;3187.00;3187.00;;;;;18.93;47.70;101959.92;34140;1264;19076;-71
2024/01/31 00:08:26;;;;;;;;;2749.00;2749.00;;;;;18.93;47.70;101969.31;34165;1249;19031;-71
2024/01/31 00:09:13;;;;;;;;;2733.00;2733.00;;;;;18.92;47.62;101971.74;34129;1259;22079;-71
2024/01/31 00:10:00;;;;;;;;;2733.00;2733.00;;;;;18.92;47.81;101973.42;34121;1264;20768;-71
2024/01/31 00:10:48;;;;;;;;;2727.00;2725.00;;;;;18.92;47.71;101979.89;34115;1265;21731;-71
2024/01/31 00:11:35;;;;;;;;;2740.00;2740.00;;;;;18.92;47.69;101976.42;34117;1250;20542;-71
2024/01/31 00:12:23;;;;;;;;;2740.00;2740.00;;;;;18.92;47.67;101976.96;34100;1251;20480;-71
2024/01/31 00:13:10;;;;;;;;;1819.50;1819.50;;;;;18.93;47.73;101972.95;34103;1265;19101;-71
2024/01/31 00:13:58;;;;;;;;;2718.00;2718.00;;;;;18.92;47.68;101975.70;34112;1265;20358;-72
2024/01/31 00:14:45;;;;;;;;;2729.00;2728.50;;;;;18.93;47.86;101976.58;34126;1264;19051;-72
2024/01/31 00:15:32;;;;;;;;;2276.00;2274.00;;;;;18.92;47.74;101971.58;34116;1265;20536;-73
2024/01/31 00:16:20;;;;;;;;;2733.00;2733.00;;;;;18.92;47.76;101974.55;34119;1250;20428;-72
2024/01/31 00:17:07;;;;;;;;;2273.00;2273.00;;;;;18.92;47.64;101979.94;34118;1250;20565;-72
2024/01/31 00:17:56;;;;;;;;;2733.00;2733.00;;;;;18.93;47.62;101977.88;34122;1250;20762;-72
2024/01/31 00:18:43;;;;;;;;;2740.00;2740.00;;;;;18.92;47.72;101976.52;34123;1265;22095;-72
2024/01/31 00:19:31;;;;;;;;;3196.00;3196.00;;;;;18.92;47.66;101971.20;34128;1265;22885;-72
2024/01/31 00:20:18;;;;;;;;;2285.00;2285.00;;;;;18.92;47.67;101974.08;34130;1250;20690;-72
2024/01/31 00:21:06;;;;;;;;;2284.67;2284.67;;;;;18.92;47.72;101977.72;34132;1264;19130;-72
2024/01/31 00:21:53;;;;;;;;;2285.00;2285.00;;;;;18.92;47.63;101977.59;34128;1265;22052;-72
2024/01/31 00:22:40;;;;;;;;;2740.00;2740.00;;;;;18.92;47.64;101974.38;34141;1264;19230;-72
2024/01/31 00:23:28;;;;;;;;;2733.00;2733.00;;;;;18.91;47.77;101972.05;34114;1265;20624;-72
2024/01/31 00:24:15;;;;;;;;;3195.00;3195.00;;;;;18.91;47.60;101972.63;34120;1250;20530;-72
2024/01/31 00:25:03;;;;;;;;;2740.00;2740.00;;;;;18.91;47.56;101970.46;34144;1265;19066;-72
2024/01/31 00:25:50;;;;;;;;;2741.00;2740.00;;;;;18.91;47.72;101973.23;34130;1264;19333;-72
2024/01/31 00:26:38;;;;;;;;;2755.00;2755.00;;;;;18.91;47.53;101977.36;34119;1264;20425;-71
2024/01/31 00:27:25;;;;;;;;;3212.00;3212.00;;;;;18.91;47.76;101977.03;34129;1265;19103;-71
2024/01/31 00:28:13;;;;;;;;;2733.00;2733.00;;;;;18.91;47.81;101975.77;34117;1264;19078;-71
2024/01/31 00:29:00;;;;;;;;;2733.50;2733.00;;;;;18.91;47.52;101973.05;34102;1257;19093;-71
2024/01/31 00:29:48;;;;;;;;;2735.00;2733.00;;;;;18.91;47.60;101969.96;34121;1251;20493;-71
2024/01/31 00:30:35;;;;;;;;;2733.00;2733.00;;;;;18.90;47.70;101974.73;34118;1264;19170;-72
2024/01/31 00:31:22;;;;;;;;;2734.00;2733.00;;;;;18.91;47.70;101976.64;34121;1264;20350;-72
2024/01/31 00:32:10;;;;;;;;;2733.00;2733.00;;;;;18.90;47.79;101979.99;34131;1264;19124;-71
2024/01/31 00:32:57;;;;;;;;;3196.00;3196.00;;;;;18.90;47.75;101979.12;34122;1265;20404;-71
2024/01/31 00:33:46;;;;;;;;;2740.00;2740.00;;;;;18.90;47.68;101976.79;34139;1265;20519;-71
2024/01/31 00:34:34;;;;;;;;;2285.00;2285.00;;;;;18.90;47.53;101977.38;34131;1264;19080;-71
2024/01/31 00:35:21;;;;;;;;;2740.67;2740.00;;;;;18.90;47.58;101974.48;34115;1250;20489;-72
2024/01/31 00:36:08;;;;;;;;;2749.00;2748.00;;;;;18.90;47.58;101975.31;34113;1265;21471;-72
2024/01/31 00:36:56;;;;;;;;;2747.00;2747.00;;;;;18.90;47.61;101974.70;34116;1251;20768;-71
2024/01/31 00:37:44;;;;;;;;;2292.00;2292.00;;;;;18.90;47.64;101976.29;34135;1265;19077;-71
2024/01/31 00:38:31;;;;;;;;;2285.00;2285.00;;;;;18.89;47.76;101979.05;34116;1251;20548;-72
2024/01/31 00:39:20;;;;;;;;;2283.33;2283.33;;;;;18.89;47.56;101978.00;34123;1265;20481;-72
2024/01/31 00:40:09;;;;;;;;;2521.50;2521.50;;;;;18.90;47.52;101976.33;34118;1264;19101;-71
2024/01/31 00:40:57;;;;;;;;;2292.00;2292.00;;;;;18.89;47.60;101973.84;34132;1266;19090;-70
2024/01/31 00:41:44;;;;;;;;;2741.00;2741.00;;;;;18.89;47.72;101974.08;34132;1265;20444;-70
2024/01/31 00:42:32;;;;;;;;;2592.67;2592.67;;;;;18.89;47.42;101979.42;34119;1265;20375;-70
2024/01/31 00:43:19;;;;;;;;;2740.00;2740.00;;;;;18.89;47.64;101979.46;34110;1250;20939;-70
2024/01/31 00:44:06;;;;;;;;;2594.67;2594.67;;;;;18.89;47.69;101982.52;34103;1264;19121;-71
2024/01/31 00:44:54;;;;;;;;;2518.00;2518.00;;;;;18.88;47.45;101984.27;34105;1265;19261;-70
2024/01/31 00:45:41;;;;;;;;;2632.50;2632.50;;;;;18.89;47.76;101985.48;34101;1265;19414;-70
2024/01/31 00:46:29;;;;;;;;;2285.00;2285.00;;;;;18.89;47.66;101980.55;34123;1265;22554;-71
2024/01/31 00:47:16;;;;;;;;;2740.00;2740.00;;;;;18.89;47.87;101980.23;34109;1266;23361;-70
2024/01/31 00:48:04;;;;;;;;;2740.00;2740.00;;;;;18.89;47.55;101982.77;34097;1265;22393;-70
2024/01/31 00:48:51;;;;;;;;;2740.00;2740.00;;;;;18.89;47.72;101981.64;34028;1266;20357;-71
2024/01/31 00:49:38;;;;;;;;;2779.00;2778.00;;;;;18.89;47.70;101979.72;34049;1267;20427;-70
2024/01/31 00:50:26;;;;;;;;;2740.00;2740.00;;;;;18.89;47.68;101981.19;34082;1266;19024;-70
2024/01/31 00:51:13;;;;;;;;;2518.50;2518.50;;;;;18.88;47.69;101974.67;34145;1265;19090;-70
2024/01/31 00:52:01;;;;;;;;;2519.00;2518.00;;;;;18.89;47.74;101976.09;34140;1264;20438;-70
2024/01/31 00:52:48;;;;;;;;;2519.00;2519.00;;;;;18.88;47.74;101977.98;34139;1251;20523;-70
2024/01/31 00:53:35;;;;;;;;;2592.67;2592.67;;;;;18.88;47.70;101971.88;34129;1265;22395;-70
2024/01/31 00:54:24;;;;;;;;;3187.00;3187.00;;;;;18.87;47.51;101975.23;34134;1250;20786;-70
2024/01/31 00:55:11;;;;;;;;;2526.50;2526.50;;;;;18.88;47.53;101977.32;34139;1265;20426;-70
2024/01/31 00:55:58;;;;;;;;;2273.00;2273.00;;;;;18.89;47.16;101982.19;34147;1257;23438;-70
2024/01/31 00:56:46;;;;;;;;;2284.00;2284.00;;;;;18.89;46.98;101981.21;34162;1265;19287;-70
2024/01/31 00:57:33;;;;;;;;;2579.00;2579.00;;;;;18.91;46.88;101983.05;34169;1258;19118;-71
2024/01/31 00:58:21;;;;;;;;;2755.00;2755.00;;;;;18.92;46.90;101980.09;34140;1265;20413;-71
2024/01/31 00:59:08;;;;;;;;;2725.00;2725.00;;;;;18.92;46.59;101981.73;34142;1251;23957;-71
2024/01/31 00:59:56;;;;;;;;;2733.00;2733.00;;;;;18.93;46.74;101980.34;34126;1249;19045;-71
2024/01/31 01:00:43;;;;;;;;;2733.00;2733.00;;;;;18.94;46.55;101977.33;34120;1250;23208;-70
2024/01/31 01:01:31;;;;;;;;;2506.00;2505.00;;;;;18.95;46.38;101980.77;34125;1265;19273;-71
2024/01/31 01:02:18;;;;;;;;;2712.00;2711.00;;;;;18.95;46.27;101966.77;34127;1250;20474;-72
2024/01/31 01:03:06;;;;;;;;;2395.25;2395.25;;;;;18.96;46.31;101972.11;34129;1251;20482;-70
2024/01/31 01:03:53;;;;;;;;;2733.50;2733.00;;;;;18.96;46.26;101973.79;34121;1265;19054;-70
2024/01/31 01:04:40;;;;;;;;;2285.00;2285.00;;;;;18.96;46.34;101972.95;34110;1265;20415;-70
2024/01/31 01:05:28;;;;;;;;;2278.00;2278.00;;;;;18.97;46.20;101975.20;34122;1250;19126;-71
2024/01/31 01:06:15;;;;;;;;;2285.00;2285.00;;;;;18.98;46.32;101981.78;34114;1265;19073;-71
2024/01/31 01:07:03;;;;;;;;;2747.00;2747.00;;;;;18.97;46.25;101985.63;34113;1251;20524;-72
2024/01/31 01:07:50;;;;;;;;;1831.33;1830.33;;;;;18.99;46.18;101982.73;34104;1265;21837;-72
2024/01/31 01:08:38;;;;;;;;;2725.00;2725.00;;;;;18.98;46.14;101977.02;34103;1250;22379;-72
2024/01/31 01:09:25;;;;;;;;;2279.00;2279.00;;;;;18.98;46.22;101975.77;34110;1265;20454;-73
2024/01/31 01:10:13;;;;;;;;;2279.00;2279.00;;;;;18.98;46.06;101973.22;34121;1265;19284;-73
2024/01/31 01:11:00;;;;;;;;;2285.00;2285.00;;;;;18.98;46.29;101966.53;34113;1264;20396;-71
2024/01/31 01:11:48;;;;;;;;;1824.67;1824.67;;;;;18.98;46.22;101967.48;34104;1250;21694;-71
2024/01/31 01:12:35;;;;;;;;;1834.67;1834.33;;;;;18.97;46.21;101972.42;34104;1248;22556;-70
2024/01/31 01:13:23;;;;;;;;;2285.00;2285.00;;;;;18.97;46.10;101973.89;34101;1250;20640;-70
2024/01/31 01:14:10;;;;;;;;;2060.50;2060.50;;;;;18.96;46.12;101968.55;34115;1264;19064;-71
2024/01/31 01:14:58;;;;;;;;;2279.00;2279.00;;;;;18.96;46.30;101971.16;34104;1265;20509;-71
2024/01/31 01:15:45;;;;;;;;;2292.00;2292.00;;;;;18.95;46.35;101963.89;34102;1265;20454;-71
2024/01/31 01:16:33;;;;;;;;;2295.00;2294.50;;;;;18.94;46.38;101964.61;34036;1251;22561;-71
2024/01/31 01:17:20;;;;;;;;;2285.00;2285.00;;;;;18.93;46.47;101963.04;34034;1251;20460;-71
2024/01/31 01:18:08;;;;;;;;;2273.00;2273.00;;;;;18.94;46.39;101966.46;34074;1265;19481;-71
2024/01/31 01:18:55;;;;;;;;;2292.33;2292.00;;;;;18.94;46.38;101968.84;34120;1265;20436;-71
2024/01/31 01:19:42;;;;;;;;;1823.00;1823.00;;;;;18.94;46.37;101969.88;34139;1264;20529;-72
2024/01/31 01:20:30;;;;;;;;;1833.00;1833.00;;;;;18.93;46.50;101974.81;34103;1264;20451;-71
2024/01/31 01:21:18;;;;;;;;;2294.50;2294.50;;;;;18.93;46.42;101973.66;34107;1264;20784;-72
2024/01/31 01:22:06;;;;;;;;;1830.50;1829.50;;;;;18.93;46.54;101979.70;34110;1265;19284;-72
2024/01/31 01:22:55;;;;;;;;;1826.00;1824.00;;;;;18.93;46.59;101975.90;34132;1250;19298;-72
2024/01/31 01:23:42;;;;;;;;;1831.00;1831.00;;;;;18.93;46.58;101973.98;34142;1265;20408;-72
2024/01/31 01:24:30;;;;;;;;;1841.00;1839.00;;;;;18.92;46.58;101975.64;34137;1251;20448;-72
2024/01/31 01:25:17;;;;;;;;;2285.00;2284.33;;;;;18.90;46.64;101971.02;34155;1265;20424;-72
2024/01/31 01:26:05;;;;;;;;;2284.75;2284.75;;;;;18.90;46.57;101970.52;34165;1265;20985;-71
2024/01/31 01:26:52;;;;;;;;;1829.00;1829.00;;;;;18.89;46.63;101964.80;34136;1264;22852;-72
2024/01/31 01:27:39;;;;;;;;;1828.00;1828.00;;;;;18.89;46.79;101964.52;34145;1264;19082;-72
2024/01/31 01:28:27;;;;;;;;;1829.50;1828.50;;;;;18.89;46.83;101958.67;34145;1264;19363;-71
2024/01/31 01:29:15;;;;;;;;;2285.00;2285.00;;;;;18.89;46.81;101956.66;34152;1250;20499;-72
2024/01/31 01:30:02;;;;;;;;;2285.00;2285.00;;;;;18.89;46.76;101951.23;34153;1264;20448;-72
2024/01/31 01:30:50;;;;;;;;;1841.00;1841.00;;;;;18.90;47.05;101952.98;34154;1249;20810;-72
2024/01/31 01:31:37;;;;;;;;;1829.00;1828.50;;;;;18.89;46.90;101950.31;34166;1265;20330;-72
2024/01/31 01:32:25;;;;;;;;;1828.50;1828.50;;;;;18.90;46.76;101948.80;34141;1265;19250;-71
2024/01/31 01:33:12;;;;;;;;;1834.50;1834.50;;;;;18.89;46.80;101942.00;34144;1250;22285;-72
2024/01/31 01:34:00;;;;;;;;;1833.00;1833.00;;;;;18.89;46.78;101944.50;34120;1265;19453;-72
2024/01/31 01:34:47;;;;;;;;;1828.33;1828.00;;;;;18.89;47.08;101943.46;34141;1264;20723;-72
2024/01/31 01:35:35;;;;;;;;;1594.50;1593.50;;;;;18.89;46.78;101942.34;34138;1265;19075;-72
2024/01/31 01:36:22;;;;;;;;;1839.00;1839.00;;;;;18.90;46.96;101942.45;34138;1265;20409;-72
2024/01/31 01:37:09;;;;;;;;;1831.00;1829.00;;;;;18.90;46.95;101943.38;34140;1250;20579;-72
2024/01/31 01:37:57;;;;;;;;;1831.00;1829.00;;;;;18.90;46.86;101939.52;34130;1265;22683;-71
2024/01/31 01:38:45;;;;;;;;;1593.00;1593.00;;;;;18.90;46.89;101939.73;34135;1249;20443;-72
2024/01/31 01:39:32;;;;;;;;;2284.50;2284.00;;;;;18.90;46.90;101942.62;34163;1265;19083;-71
2024/01/31 01:40:20;;;;;;;;;1832.00;1831.00;;;;;18.89;46.83;101941.04;34124;1265;19468;-71
2024/01/31 01:41:07;;;;;;;;;2132.67;2132.33;;;;;18.89;47.07;101943.20;34132;1256;20405;-71
2024/01/31 01:41:56;;;;;;;;;1835.00;1834.00;;;;;18.89;47.01;101940.71;34132;1251;20491;-71
2024/01/31 01:42:43;;;;;;;;;1369.00;1369.00;;;;;18.89;47.18;101937.49;34126;1265;22686;-71
2024/01/31 01:43:31;;;;;;;;;2292.00;2292.00;;;;;18.89;46.96;101945.09;34121;1249;20726;-71
2024/01/31 01:44:18;;;;;;;;;2276.00;2273.00;;;;;18.90;46.95;101945.92;34113;1266;20433;-71
2024/01/31 01:45:06;;;;;;;;;2285.00;2285.00;;;;;18.89;46.95;101949.61;34138;1250;20500;-71
2024/01/31 01:45:53;;;;;;;;;1593.50;1593.50;;;;;18.89;47.10;101948.19;34151;1266;19118;-71
2024/01/31 01:46:40;;;;;;;;;1833.50;1833.50;;;;;18.89;46.97;101952.33;34124;1265;20425;-71
2024/01/31 01:47:28;;;;;;;;;1830.50;1830.50;;;;;18.89;46.94;101954.66;34130;1266;22656;-71
2024/01/31 01:48:15;;;;;;;;;2292.00;2290.00;;;;;18.89;46.85;101958.51;34129;1257;19073;-72
2024/01/31 01:49:03;;;;;;;;;2284.00;2284.00;;;;;18.88;47.03;101959.14;34143;1251;20539;-72
2024/01/31 01:49:50;;;;;;;;;2285.00;2284.00;;;;;18.88;46.95;101960.77;34129;1265;19148;-72
2024/01/31 01:50:38;;;;;;;;;1828.00;1828.00;;;;;18.89;46.94;101957.25;34128;1250;22562;-72
2024/01/31 01:51:25;;;;;;;;;2285.00;2284.00;;;;;18.89;47.06;101958.50;34129;1251;22935;-71
2024/01/31 01:52:13;;;;;;;;;2362.00;2362.00;;;;;18.89;47.10;101961.60;34040;1266;19110;-71
2024/01/31 01:53:00;;;;;;;;;1835.00;1834.00;;;;;18.88;47.02;101956.30;34082;1250;22487;-71
2024/01/31 01:53:47;;;;;;;;;1838.50;1838.00;;;;;18.88;46.97;101958.64;34124;1265;19063;-72
2024/01/31 01:54:35;;;;;;;;;1828.00;1828.00;;;;;18.88;46.93;101954.88;34133;1265;19275;-71
2024/01/31 01:55:22;;;;;;;;;1830.33;1828.67;;;;;18.87;47.15;101953.47;34118;1266;19047;-71
2024/01/31 01:56:10;;;;;;;;;1374.00;1373.00;;;;;18.88;47.08;101950.28;34129;1266;19067;-71
2024/01/31 01:56:57;;;;;;;;;1373.00;1373.00;;;;;18.88;47.00;101950.16;34125;1250;20587;-71
2024/01/31 01:57:44;;;;;;;;;1828.00;1828.00;;;;;18.89;47.11;101948.56;34109;1266;19066;-70
2024/01/31 01:58:32;;;;;;;;;1832.50;1831.50;;;;;18.90;47.52;101951.47;34148;1250;19126;-71
2024/01/31 01:59:19;;;;;;;;;1833.00;1833.00;;;;;18.91;47.35;101952.70;34148;1265;20818;-71
2024/01/31 02:01:36;;;;;;;;;125.50;125.00;;;;;18.89;47.27;101948.40;34121;1265;19119;-71
2024/01/31 02:02:23;;;;;;;;;13.00;12.00;;;;;18.88;47.30;101949.91;34113;1265;18863;-71
2024/01/31 02:03:11;;;;;;;;;698.50;697.50;;;;;18.88;47.33;101953.58;34119;1250;20202;-70
2024/01/31 02:03:58;;;;;;;;;1600.50;1600.50;;;;;18.88;47.30;101953.96;34109;1265;18872;-71
2024/01/31 02:04:46;;;;;;;;;1149.00;1149.00;;;;;18.88;47.39;101957.52;34108;1251;20645;-70
2024/01/31 02:05:33;;;;;;;;;1145.00;1145.00;;;;;18.88;47.27;101955.42;34126;1259;19044;-71
2024/01/31 02:06:20;;;;;;;;;1377.00;1377.00;;;;;18.88;47.21;101953.38;34118;1250;20536;-72
2024/01/31 02:07:08;;;;;;;;;1374.50;1374.50;;;;;18.88;47.28;101954.30;34117;1251;20506;-71
2024/01/31 02:07:55;;;;;;;;;1666.67;1666.67;;;;;18.88;47.30;101959.47;34137;1251;20469;-71
2024/01/31 02:08:42;;;;;;;;;1833.00;1833.00;;;;;18.88;47.36;101958.27;34133;1259;20359;-71
2024/01/31 02:09:29;;;;;;;;;1823.00;1823.00;;;;;18.88;47.41;101959.68;34120;1250;22824;-71
2024/01/31 02:10:17;;;;;;;;;2290.00;2290.00;;;;;18.88;47.37;101957.17;34127;1266;20416;-71
2024/01/31 02:11:04;;;;;;;;;1819.33;1819.00;;;;;18.88;47.59;101954.34;34114;1265;19065;-71
2024/01/31 02:11:51;;;;;;;;;1819.00;1819.00;;;;;18.88;47.41;101952.17;34141;1253;20481;-71
2024/01/31 02:12:39;;;;;;;;;2287.00;2285.00;;;;;18.88;47.53;101952.76;34136;1265;19077;-71
2024/01/31 02:13:26;;;;;;;;;1831.00;1829.00;;;;;18.88;47.57;101955.80;34134;1251;20529;-71
2024/01/31 02:14:13;;;;;;;;;2279.00;2279.00;;;;;18.88;47.70;101952.17;34120;1265;19093;-70
2024/01/31 02:15:01;;;;;;;;;2284.50;2284.00;;;;;18.88;47.66;101951.09;34133;1250;21656;-70
2024/01/31 02:15:48;;;;;;;;;2292.00;2290.00;;;;;18.88;47.68;101953.80;34133;1251;19081;-70
2024/01/31 02:16:35;;;;;;;;;1818.00;1818.00;;;;;18.88;47.82;101951.41;34125;1266;20703;-70
2024/01/31 02:17:23;;;;;;;;;2292.00;2292.00;;;;;18.88;47.86;101954.38;34123;1265;22702;-69
2024/01/31 02:18:10;;;;;;;;;2278.00;2278.00;;;;;18.89;47.84;101958.38;34112;1265;20464;-70
2024/01/31 02:18:57;;;;;;;;;2285.00;2285.00;;;;;18.88;47.88;101955.29;34115;1250;20557;-71
2024/01/31 02:19:44;;;;;;;;;2285.00;2285.00;;;;;18.88;48.03;101953.92;34126;1266;19060;-70
2024/01/31 02:20:32;;;;;;;;;2285.67;2285.67;;;;;18.88;47.95;101952.95;34126;1250;20598;-70
2024/01/31 02:21:19;;;;;;;;;2588.00;2588.00;;;;;18.88;48.03;101951.95;34114;1259;20425;-70
2024/01/31 02:22:06;;;;;;;;;1834.67;1833.00;;;;;18.87;48.02;101953.17;34116;1265;20446;-70
2024/01/31 02:22:55;;;;;;;;;2286.00;2285.00;;;;;18.87;48.11;101958.36;34106;1250;20545;-70
2024/01/31 02:23:42;;;;;;;;;2293.67;2293.67;;;;;18.90;47.96;101960.29;34127;1265;19066;-70
2024/01/31 02:24:30;;;;;;;;;2279.00;2279.00;;;;;18.92;47.72;101958.96;34121;1256;20674;-70
2024/01/31 02:25:17;;;;;;;;;2291.00;2291.00;;;;;18.94;47.63;101960.77;34130;1250;20179;-70
2024/01/31 02:26:05;;;;;;;;;1828.00;1828.00;;;;;18.95;47.49;101959.67;34122;1251;20517;-70
2024/01/31 02:26:52;;;;;;;;;2310.00;2310.00;;;;;18.98;47.69;101963.15;34105;1253;20497;-71
2024/01/31 02:27:39;;;;;;;;;2285.00;2285.00;;;;;18.98;47.59;101963.19;34128;1264;19067;-71
2024/01/31 02:28:26;;;;;;;;;2317.00;2317.00;;;;;18.99;47.79;101966.23;34144;1264;19118;-71
2024/01/31 02:29:14;;;;;;;;;1836.50;1835.50;;;;;19.00;47.55;101962.08;34123;1251;22204;-71
2024/01/31 02:30:01;;;;;;;;;1828.67;1828.67;;;;;19.00;47.52;101959.53;34110;1250;22666;-72
2024/01/31 02:30:48;;;;;;;;;2279.50;2279.00;;;;;19.01;47.41;101962.48;34103;1249;20501;-72
2024/01/31 02:31:36;;;;;;;;;2279.00;2278.50;;;;;19.01;47.49;101961.77;34121;1256;19161;-72
2024/01/31 02:32:23;;;;;;;;;2284.00;2284.00;;;;;19.01;47.52;101959.60;34130;1250;20523;-72
2024/01/31 02:33:10;;;;;;;;;2285.00;2284.50;;;;;19.02;47.43;101957.63;34092;1250;19119;-72
2024/01/31 02:33:58;;;;;;;;;2733.00;2733.00;;;;;19.02;47.40;101959.54;34127;1265;20414;-72
2024/01/31 02:34:45;;;;;;;;;1824.50;1823.50;;;;;19.02;47.42;101956.66;34115;1256;23398;-72
2024/01/31 02:35:32;;;;;;;;;1835.00;1833.00;;;;;19.02;47.39;101955.95;34095;1250;22551;-73
2024/01/31 02:36:20;;;;;;;;;2265.00;2265.00;;;;;19.02;47.29;101956.38;34120;1265;19098;-73
2024/01/31 02:37:07;;;;;;;;;2284.00;2284.00;;;;;19.01;47.25;101953.63;34115;1265;20368;-73
2024/01/31 02:37:57;;;;;;;;;2733.00;2733.00;;;;;19.00;47.44;101955.18;34108;1249;22849;-72
2024/01/31 02:38:45;;;;;;;;;1834.00;1834.00;;;;;19.00;47.38;101951.81;34124;1265;19087;-72
2024/01/31 02:39:33;;;;;;;;;2298.50;2298.00;;;;;19.00;47.23;101953.23;34125;1250;19095;-72
2024/01/31 02:40:22;;;;;;;;;1830.00;1830.00;;;;;18.99;47.41;101951.73;34142;1250;22771;-72
2024/01/31 02:41:09;;;;;;;;;2284.50;2284.00;;;;;18.99;47.21;101955.16;34120;1266;19088;-72
2024/01/31 02:41:57;;;;;;;;;2284.50;2284.00;;;;;18.98;47.35;101954.95;34141;1257;19422;-72
2024/01/31 02:42:44;;;;;;;;;2284.00;2284.00;;;;;18.98;47.40;101955.17;34154;1265;20437;-72
2024/01/31 02:43:32;;;;;;;;;1838.00;1838.00;;;;;18.97;47.41;101955.93;34144;1251;20473;-73
2024/01/31 02:44:20;;;;;;;;;1828.50;1828.50;;;;;18.98;47.38;101954.38;34145;1249;20559;-73
2024/01/31 02:45:07;;;;;;;;;1843.50;1842.50;;;;;18.96;47.40;101952.80;34123;1265;22294;-73
2024/01/31 02:45:55;;;;;;;;;1838.50;1838.00;;;;;18.96;47.38;101955.02;34146;1265;19070;-73
2024/01/31 02:46:42;;;;;;;;;1839.00;1838.00;;;;;18.96;47.19;101958.88;34143;1264;19082;-73
2024/01/31 02:47:29;;;;;;;;;2285.00;2284.00;;;;;18.95;47.37;101957.42;34134;1256;23521;-73
2024/01/31 02:48:16;;;;;;;;;1841.00;1839.00;;;;;18.94;47.41;101960.48;34114;1258;19108;-73
2024/01/31 02:49:04;;;;;;;;;1841.00;1838.00;;;;;18.93;47.27;101957.11;34135;1250;19062;-73
2024/01/31 02:49:51;;;;;;;;;1834.00;1834.00;;;;;18.93;47.42;101956.78;34125;1265;19086;-73
2024/01/31 02:50:39;;;;;;;;;1838.00;1838.00;;;;;18.94;47.49;101958.69;34152;1265;19074;-72
2024/01/31 02:51:26;;;;;;;;;1840.33;1839.00;;;;;18.93;47.30;101959.66;34150;1265;22586;-74
2024/01/31 02:52:13;;;;;;;;;2297.00;2297.00;;;;;18.91;47.53;101961.81;34132;1265;20455;-73
2024/01/31 02:53:01;;;;;;;;;2279.00;2279.00;;;;;18.91;47.42;101961.11;34123;1265;19084;-72
2024/01/31 02:53:48;;;;;;;;;1824.00;1824.00;;;;;18.90;47.48;101962.61;34110;1250;20490;-72
2024/01/31 02:54:35;;;;;;;;;2272.67;2272.67;;;;;18.90;47.64;101963.48;34097;1265;21414;-72
2024/01/31 02:55:23;;;;;;;;;2285.00;2284.67;;;;;18.91;47.67;101965.45;34093;1251;20524;-72
2024/01/31 02:56:10;;;;;;;;;2752.00;2751.50;;;;;18.90;47.63;101961.86;34081;1260;20426;-72
2024/01/31 02:56:57;;;;;;;;;2279.00;2279.00;;;;;18.90;47.65;101968.80;34098;1251;20543;-73
2024/01/31 02:57:44;;;;;;;;;2284.00;2284.00;;;;;18.90;47.64;101968.80;34105;1250;20553;-73
2024/01/31 02:58:32;;;;;;;;;2284.00;2284.00;;;;;18.90;47.74;101968.48;34084;1251;20546;-72
2024/01/31 02:59:22;;;;;;;;;1589.50;1589.50;;;;;18.90;47.62;101970.77;34110;1265;19125;-73
2024/01/31 03:00:11;;;;;;;;;2285.00;2285.00;;;;;18.90;47.78;101970.21;34136;1251;20564;-73
2024/01/31 03:01:00;;;;;;;;;1828.00;1828.00;;;;;18.90;47.70;101967.88;34122;1251;20532;-73
2024/01/31 03:01:49;;;;;;;;;2138.33;2137.67;;;;;18.91;47.82;101970.34;34120;1264;22596;-73
2024/01/31 03:02:36;;;;;;;;;2284.50;2284.50;;;;;18.91;47.82;101971.50;34095;1265;20394;-72
2024/01/31 03:03:24;;;;;;;;;1830.00;1830.00;;;;;18.91;47.60;101974.75;34112;1265;19102;-72
2024/01/31 03:04:11;;;;;;;;;1830.00;1828.50;;;;;18.91;47.62;101975.35;34118;1249;19458;-72
2024/01/31 03:04:59;;;;;;;;;1824.00;1824.00;;;;;18.91;47.83;101966.76;34091;1264;19085;-71
2024/01/31 03:05:46;;;;;;;;;2278.25;2278.00;;;;;18.90;47.68;101968.48;34113;1250;20651;-70
2024/01/31 03:06:33;;;;;;;;;1836.00;1834.00;;;;;18.93;48.22;101967.42;34103;1264;19076;-71
2024/01/31 03:07:20;;;;;;;;;1824.00;1824.00;;;;;18.95;48.25;101967.53;34094;1266;19066;-70
2024/01/31 03:08:08;;;;;;;;;2280.00;2280.00;;;;;18.94;48.42;101965.75;34119;1264;19112;-71
2024/01/31 03:08:55;;;;;;;;;1829.00;1829.00;;;;;18.94;48.27;101967.66;34091;1250;19113;-71
2024/01/31 03:09:43;;;;;;;;;2284.00;2284.00;;;;;18.94;48.29;101963.91;34129;1264;19047;-71
2024/01/31 03:10:32;;;;;;;;;2273.00;2273.00;;;;;18.93;48.39;101964.88;34139;1251;20555;-71
2024/01/31 03:11:19;;;;;;;;;1823.50;1823.00;;;;;18.93;48.25;101956.83;34121;1251;20477;-71
2024/01/31 03:12:07;;;;;;;;;1818.25;1818.25;;;;;18.93;48.20;101960.30;34140;1265;19096;-71
2024/01/31 03:12:54;;;;;;;;;2284.00;2284.00;;;;;18.93;48.32;101958.36;34145;1257;20530;-71
2024/01/31 03:13:42;;;;;;;;;2278.00;2278.00;;;;;18.93;48.08;101958.13;34144;1265;20564;-71
2024/01/31 03:14:29;;;;;;;;;2285.00;2285.00;;;;;18.93;48.11;101956.48;34135;1256;19063;-71
2024/01/31 03:15:16;;;;;;;;;1816.00;1814.00;;;;;18.92;48.14;101960.02;34131;1265;19086;-71
2024/01/31 03:16:03;;;;;;;;;1366.50;1365.50;;;;;18.92;48.36;101959.14;34137;1264;19069;-70
2024/01/31 03:16:51;;;;;;;;;1823.00;1823.00;;;;;18.92;48.44;101958.55;34125;1265;19080;-70
2024/01/31 03:17:38;;;;;;;;;1823.00;1823.00;;;;;18.91;48.32;101959.98;34139;1251;20937;-71
2024/01/31 03:18:26;;;;;;;;;2279.00;2279.00;;;;;18.91;48.18;101958.52;34138;1250;21651;-71
2024/01/31 03:19:15;;;;;;;;;2284.50;2284.50;;;;;18.91;48.23;101957.48;34131;1250;20462;-71
2024/01/31 03:20:03;;;;;;;;;2285.00;2284.00;;;;;18.91;48.33;101955.73;34144;1264;19073;-71
2024/01/31 03:20:54;;;;;;;;;1829.00;1829.00;;;;;18.90;48.40;101957.52;34145;1265;19109;-70
2024/01/31 03:21:41;;;;;;;;;1829.00;1828.00;;;;;18.93;48.46;101957.27;34134;1251;20564;-71
2024/01/31 03:22:29;;;;;;;;;1823.00;1823.00;;;;;19.01;48.55;101957.38;34123;1264;19089;-71
2024/01/31 03:23:16;;;;;;;;;1823.00;1823.00;;;;;19.05;48.74;101955.33;34101;1265;19321;-71
2024/01/31 03:24:03;;;;;;;;;1824.00;1823.50;;;;;19.05;48.74;101958.46;34124;1249;23524;-71
2024/01/31 03:24:51;;;;;;;;;1824.00;1824.00;;;;;19.03;48.95;101962.00;34125;1265;19129;-71
2024/01/31 03:25:38;;;;;;;;;2056.50;2056.00;;;;;19.00;49.09;101957.02;34120;1265;19105;-72
2024/01/31 03:26:25;;;;;;;;;2285.00;2284.00;;;;;18.98;48.93;101959.73;34121;1251;20561;-71
2024/01/31 03:27:13;;;;;;;;;2133.00;2133.00;;;;;18.97;48.87;101958.41;34130;1250;20534;-71
2024/01/31 03:28:01;;;;;;;;;2279.00;2279.00;;;;;18.95;48.97;101957.21;34136;1251;20554;-71